Time;durP1;ratioP1;P1;durP2;ratioP2;P2;SDS_P1;SDS_P2;PMS_P1;PMS_P2;Temp;Humidity;BMP_temperature;BMP_pressure;BME280_temperature;BME280_humidity;BME280_pressure;Samples;Min_cycle;Max_cycle;Signal;HPM_P1;HPM_P2
2023/08/11 00:02:20;;;;;;;6.50;4.90;;;16.60;1.00;;;;;;7371482;19;20516;-67
2023/08/11 00:04:53;;;;;;;9.35;4.50;;;16.50;1.00;;;;;;7369268;19;20075;-66
2023/08/11 00:07:23;;;;;;;6.18;4.93;;;16.40;1.00;;;;;;7370822;19;20038;-67
2023/08/11 00:09:53;;;;;;;8.07;4.78;;;16.40;1.00;;;;;;7371544;19;20011;-68
2023/08/11 00:12:23;;;;;;;5.28;4.18;;;16.30;1.00;;;;;;7370809;19;20014;-68
2023/08/11 00:14:53;;;;;;;6.63;3.95;;;16.20;1.00;;;;;;7370802;19;20015;-67
2023/08/11 00:17:23;;;;;;;6.50;3.72;;;16.10;1.00;;;;;;7372862;19;20500;-66
2023/08/11 00:19:56;;;;;;;6.38;3.60;;;15.80;1.00;;;;;;7370647;19;20014;-68
2023/08/11 00:22:26;;;;;;;10.50;4.40;;;15.80;1.00;;;;;;7371152;19;20037;-68
2023/08/11 00:24:56;;;;;;;5.82;4.00;;;15.90;1.00;;;;;;7370150;19;20043;-66
2023/08/11 00:27:27;;;;;;;8.55;4.05;;;15.90;1.00;;;;;;7371882;19;20505;-67
2023/08/11 00:29:58;;;;;;;6.80;4.30;;;15.90;1.00;;;;;;7371958;19;20082;-65
2023/08/11 00:32:28;;;;;;;6.25;4.22;;;15.90;1.00;;;;;;7370923;19;20011;-67
2023/08/11 00:35:02;;;;;;;6.50;4.53;;;15.90;1.00;;;;;;7371088;19;20621;-66
2023/08/11 00:37:32;;;;;;;8.40;3.95;;;15.90;1.00;;;;;;7370657;19;20006;-68
2023/08/11 00:40:03;;;;;;;5.97;4.20;;;15.80;1.00;;;;;;7371072;19;20036;-66
2023/08/11 00:42:34;;;;;;;9.25;4.18;;;15.80;1.00;;;;;;7371631;19;20015;-65
2023/08/11 00:45:05;;;;;;;6.38;4.05;;;15.80;1.00;;;;;;7369493;19;20030;-66
2023/08/11 00:47:35;;;;;;;10.98;4.60;;;15.70;1.00;;;;;;7370894;19;20014;-67
2023/08/11 00:50:10;;;;;;;6.30;4.20;;;15.70;1.00;;;;;;7370496;19;20365;-68
2023/08/11 00:52:41;;;;;;;5.50;3.97;;;15.80;1.00;;;;;;7371432;19;20026;-67
2023/08/11 00:55:11;;;;;;;6.88;4.15;;;15.70;1.00;;;;;;7370602;19;20014;-67
2023/08/11 00:57:43;;;;;;;4.43;4.03;;;15.60;1.00;;;;;;7370267;19;20014;-68
2023/08/11 01:00:16;;;;;;;5.13;4.25;;;15.60;1.00;;;;;;7369224;19;20017;-67
2023/08/11 01:02:47;;;;;;;7.68;4.20;;;15.60;1.00;;;;;;7370726;19;20747;-67
2023/08/11 01:05:21;;;;;;;7.82;4.63;;;15.60;1.00;;;;;;7369676;19;20010;-68
2023/08/11 01:07:59;;;;;;;;;;;15.70;1.00;;;;;;7371657;19;20011;-68
2023/08/11 01:10:39;;;;;;;5.88;4.55;;;15.70;1.00;;;;;;7371897;19;19922;-67
2023/08/11 01:13:17;;;;;;;7.03;4.22;;;15.70;1.00;;;;;;7369541;19;20144;-67
2023/08/11 01:15:53;;;;;;;7.18;4.30;;;15.80;1.00;;;;;;7373993;19;20036;-67
2023/08/11 01:18:25;;;;;;;9.32;3.75;;;15.80;1.00;;;;;;7377827;19;20081;-67
2023/08/11 01:21:03;;;;;;;5.72;3.78;;;15.80;1.00;;;;;;7378319;19;20014;-68
2023/08/11 01:23:36;;;;;;;6.50;4.25;;;15.80;1.00;;;;;;7378982;19;20484;-68
2023/08/11 01:26:06;;;;;;;5.68;4.03;;;15.80;1.00;;;;;;7379935;19;20014;-68
2023/08/11 01:28:37;;;;;;;10.23;4.40;;;15.80;1.00;;;;;;7379341;19;20030;-67
2023/08/11 01:31:08;;;;;;;5.97;3.88;;;15.80;1.00;;;;;;7379534;19;20126;-67
2023/08/11 01:33:38;;;;;;;8.73;4.72;;;15.80;1.00;;;;;;7378125;19;20030;-67
2023/08/11 01:36:08;;;;;;;6.65;4.25;;;15.70;1.00;;;;;;7378658;19;20026;-67
2023/08/11 01:38:41;;;;;;;7.50;4.57;;;15.80;1.00;;;;;;7378361;19;20026;-67
2023/08/11 01:41:11;;;;;;;5.63;4.35;;;15.70;1.00;;;;;;7376467;19;20038;-68
2023/08/11 01:43:42;;;;;;;8.18;4.75;;;15.70;1.00;;;;;;7376030;19;20489;-67
2023/08/11 01:46:13;;;;;;;6.40;4.72;;;15.80;1.00;;;;;;7377220;19;20017;-67
2023/08/11 01:48:44;;;;;;;5.75;4.10;;;15.80;1.00;;;;;;7377263;19;20013;-67
2023/08/11 01:51:14;;;;;;;7.72;5.18;;;15.80;1.00;;;;;;7375844;19;20502;-67
2023/08/11 01:53:47;;;;;;;7.70;4.45;;;15.80;1.00;;;;;;7375309;19;20637;-68
2023/08/11 01:56:17;;;;;;;4.78;4.00;;;15.70;1.00;;;;;;7380125;19;20010;-68
2023/08/11 01:58:47;;;;;;;4.47;4.00;;;15.70;1.00;;;;;;7377645;19;20689;-67
2023/08/11 02:01:17;;;;;;;6.43;3.88;;;15.70;1.00;;;;;;7379972;19;20035;-68
2023/08/11 02:03:47;;;;;;;7.88;4.30;;;15.70;1.00;;;;;;7379057;19;20011;-68
2023/08/11 02:06:20;;;;;;;5.35;3.95;;;15.60;1.00;;;;;;7376391;19;20511;-69
2023/08/11 02:08:53;;;;;;;4.72;3.42;;;15.60;1.00;;;;;;7378467;19;20082;-69
2023/08/11 02:11:23;;;;;;;6.00;3.67;;;15.50;1.00;;;;;;7377638;19;20022;-67
2023/08/11 02:13:53;;;;;;;4.32;3.55;;;15.50;1.00;;;;;;7377384;19;20093;-68
2023/08/11 02:16:23;;;;;;;5.05;3.83;;;15.40;1.00;;;;;;7361633;19;20014;-67
2023/08/11 02:18:54;;;;;;;8.10;4.03;;;15.40;1.00;;;;;;7376925;19;20078;-68
2023/08/11 02:21:24;;;;;;;7.88;4.18;;;15.40;1.00;;;;;;7378209;19;20010;-68
2023/08/11 02:23:56;;;;;;;7.30;4.32;;;15.40;1.00;;;;;;7377247;19;20034;-68
2023/08/11 02:26:26;;;;;;;7.25;4.82;;;15.40;1.00;;;;;;7377193;19;20048;-68
2023/08/11 02:28:56;;;;;;;6.95;4.90;;;15.40;1.00;;;;;;7376188;19;20015;-68
2023/08/11 02:31:27;;;;;;;6.97;4.82;;;15.40;1.00;;;;;;7377744;19;20010;-68
2023/08/11 02:33:57;;;;;;;6.00;4.72;;;15.40;1.00;;;;;;7374988;19;20010;-69
2023/08/11 02:36:27;;;;;;;7.15;5.32;;;15.40;1.00;;;;;;7376042;19;20025;-69
2023/08/11 02:39:00;;;;;;;6.53;4.82;;;15.40;1.00;;;;;;7374643;19;20580;-68
2023/08/11 02:41:30;;;;;;;6.38;5.07;;;15.30;1.00;;;;;;7376949;19;20018;-68
2023/08/11 02:44:00;;;;;;;5.20;4.65;;;15.30;1.00;;;;;;7375470;19;20649;-68
2023/08/11 02:46:31;;;;;;;5.32;4.50;;;15.30;1.00;;;;;;7377012;19;20015;-68
2023/08/11 02:49:01;;;;;;;6.15;4.80;;;15.30;1.00;;;;;;7376360;19;20459;-68
2023/08/11 02:51:31;;;;;;;7.00;4.57;;;15.20;1.00;;;;;;7377770;19;20433;-68
2023/08/11 02:54:04;;;;;;;7.88;5.15;;;15.20;1.00;;;;;;7374768;19;20014;-67
2023/08/11 02:56:34;;;;;;;8.18;4.75;;;15.20;1.00;;;;;;7375577;19;20507;-68
2023/08/11 02:59:04;;;;;;;6.95;5.32;;;15.20;1.00;;;;;;7374764;19;20011;-67
2023/08/11 03:01:34;;;;;;;5.97;4.50;;;15.20;1.00;;;;;;7375093;19;20081;-67
2023/08/11 03:04:04;;;;;;;5.95;4.40;;;15.20;1.00;;;;;;7375894;19;20014;-69
2023/08/11 03:06:34;;;;;;;9.45;5.10;;;15.20;1.00;;;;;;7375556;19;20014;-68
2023/08/11 03:09:07;;;;;;;8.30;4.65;;;15.10;1.00;;;;;;7375863;19;20507;-66
2023/08/11 03:11:37;;;;;;;6.20;5.00;;;15.10;1.00;;;;;;7373957;19;20078;-68
2023/08/11 03:14:07;;;;;;;7.90;5.45;;;15.10;1.00;;;;;;7374715;19;20078;-68
2023/08/11 03:16:37;;;;;;;10.93;6.18;;;15.20;1.00;;;;;;7376528;19;20018;-68
2023/08/11 03:19:07;;;;;;;9.73;6.50;;;15.20;1.00;;;;;;7376807;19;20011;-67
2023/08/11 03:21:37;;;;;;;8.65;6.60;;;15.20;1.00;;;;;;7375199;19;20056;-68
2023/08/11 03:24:09;;;;;;;6.57;5.88;;;15.20;1.00;;;;;;7376127;19;20014;-69
2023/08/11 03:26:43;;;;;;;8.60;6.18;;;15.20;1.00;;;;;;7376163;19;20075;-68
2023/08/11 03:29:13;;;;;;;7.88;5.63;;;15.20;1.00;;;;;;7375335;19;20031;-68
2023/08/11 03:31:43;;;;;;;8.40;5.88;;;15.20;1.00;;;;;;7374290;19;20013;-67
2023/08/11 03:34:13;;;;;;;10.65;6.10;;;15.20;1.00;;;;;;7374465;19;20011;-67
2023/08/11 03:36:43;;;;;;;8.02;5.68;;;15.20;1.00;;;;;;7374727;19;20050;-67
2023/08/11 03:39:16;;;;;;;7.80;6.07;;;15.10;1.00;;;;;;7371860;19;20802;-68
2023/08/11 03:41:46;;;;;;;7.05;6.07;;;15.20;1.00;;;;;;7373857;19;20084;-67
2023/08/11 03:44:16;;;;;;;6.82;6.13;;;15.20;1.00;;;;;;7373967;19;20014;-68
2023/08/11 03:46:46;;;;;;;8.10;6.10;;;15.10;1.00;;;;;;7373543;19;20040;-69
2023/08/11 03:49:17;;;;;;;8.52;5.57;;;15.00;1.00;;;;;;7373671;19;20090;-68
2023/08/11 03:51:47;;;;;;;8.55;5.97;;;15.00;1.00;;;;;;7373597;19;20014;-68
2023/08/11 03:54:19;;;;;;;9.27;5.75;;;15.00;1.00;;;;;;7373574;19;20006;-67
2023/08/11 03:57:00;;;;;;;8.48;5.68;;;15.00;1.00;;;;;;7269813;19;2003923;-67
2023/08/11 03:59:30;;;;;;;8.23;5.50;;;15.00;1.00;;;;;;7372179;19;20017;-67
2023/08/11 04:02:00;;;;;;;7.90;5.70;;;15.10;1.00;;;;;;7372575;19;20371;-67
2023/08/11 04:04:30;;;;;;;7.07;5.45;;;15.10;1.00;;;;;;7371397;19;20530;-67
2023/08/11 04:07:00;;;;;;;6.18;5.32;;;15.20;1.00;;;;;;7373293;19;20140;-68
2023/08/11 04:09:34;;;;;;;6.82;5.28;;;15.10;1.00;;;;;;7372942;19;20492;-67
2023/08/11 04:12:04;;;;;;;7.07;5.70;;;15.20;1.00;;;;;;7372566;19;20027;-67
2023/08/11 04:14:34;;;;;;;7.85;5.68;;;15.20;1.00;;;;;;7372305;19;20015;-67
2023/08/11 04:17:04;;;;;;;7.13;5.72;;;15.20;1.00;;;;;;7372978;19;20086;-68
2023/08/11 04:19:34;;;;;;;8.13;5.18;;;15.20;1.00;;;;;;7372586;19;20014;-67
2023/08/11 04:22:05;;;;;;;7.47;5.28;;;15.30;1.00;;;;;;7373125;19;20487;-68
2023/08/11 04:24:38;;;;;;;10.50;5.78;;;15.30;1.00;;;;;;7372425;19;20010;-68
2023/08/11 04:27:08;;;;;;;7.15;5.38;;;15.40;1.00;;;;;;7372407;19;20002;-69
2023/08/11 04:29:38;;;;;;;9.65;5.63;;;15.30;1.00;;;;;;7372154;19;20011;-68
2023/08/11 04:32:08;;;;;;;5.97;4.93;;;15.60;1.00;;;;;;7372404;19;20027;-69
2023/08/11 04:34:38;;;;;;;6.25;5.10;;;17.00;1.00;;;;;;7371440;19;20007;-68
2023/08/11 04:37:10;;;;;;;6.72;5.03;;;17.60;1.00;;;;;;7372088;19;20006;-68
2023/08/11 04:39:43;;;;;;;11.32;5.38;;;18.10;1.00;;;;;;7371769;19;20571;-67
2023/08/11 04:42:13;;;;;;;14.43;5.40;;;18.80;1.00;;;;;;7372015;19;20419;-67
2023/08/11 04:44:43;;;;;;;6.20;4.93;;;18.80;1.00;;;;;;7371926;19;20035;-67
2023/08/11 04:47:13;;;;;;;4.75;3.90;;;19.20;1.00;;;;;;7371820;19;20011;-68
2023/08/11 04:49:43;;;;;;;7.85;4.68;;;19.30;1.00;;;;;;7372652;19;20039;-68
2023/08/11 04:52:13;;;;;;;8.82;4.80;;;19.50;1.00;;;;;;7378803;19;20629;-67
2023/08/11 04:54:46;;;;;;;10.27;5.38;;;19.80;1.00;;;;;;7377918;19;20479;-67
2023/08/11 04:57:16;;;;;;;7.63;4.53;;;20.50;1.00;;;;;;7379203;19;20685;-68
2023/08/11 04:59:48;;;;;;;6.18;4.28;;;21.20;1.00;;;;;;7377712;19;20109;-67
2023/08/11 05:02:18;;;;;;;9.10;4.40;;;20.80;1.00;;;;;;7378758;19;20534;-68
2023/08/11 05:04:48;;;;;;;7.20;4.32;;;21.20;1.00;;;;;;7377447;19;20010;-68
2023/08/11 05:07:18;;;;;;;5.97;4.15;;;21.00;1.00;;;;;;7377518;19;20039;-69
2023/08/11 05:09:50;;;;;;;7.70;4.82;;;20.80;1.00;;;;;;7379544;19;20014;-68
2023/08/11 05:12:20;;;;;;;8.10;4.30;;;21.50;1.00;;;;;;7377910;19;20051;-69
2023/08/11 05:14:51;;;;;;;5.20;3.95;;;21.50;1.00;;;;;;7378082;19;20003;-68
2023/08/11 05:17:21;;;;;;;5.47;4.20;;;21.40;1.00;;;;;;7378435;19;20014;-69
2023/08/11 05:19:51;;;;;;;7.07;3.67;;;20.60;1.00;;;;;;7378110;19;20032;-69
2023/08/11 05:22:21;;;;;;;7.00;4.25;;;21.70;1.00;;;;;;7378372;19;20078;-68
2023/08/11 05:24:53;;;;;;;5.07;3.67;;;22.00;1.00;;;;;;7376787;19;20014;-69
2023/08/11 05:27:23;;;;;;;10.90;4.63;;;21.60;1.00;;;;;;7377985;19;20018;-68
2023/08/11 05:29:53;;;;;;;7.63;4.00;;;21.80;1.00;;;;;;7376716;19;20039;-67
2023/08/11 05:32:23;;;;;;;7.82;4.05;;;21.70;1.00;;;;;;7377819;19;20102;-68
2023/08/11 05:34:55;;;;;;;6.90;4.32;;;21.60;1.00;;;;;;7378284;19;20006;-68
2023/08/11 05:37:25;;;;;;;6.93;4.57;;;21.70;1.00;;;;;;7375194;19;20016;-68
2023/08/11 05:39:58;;;;;;;5.20;4.15;;;21.90;1.00;;;;;;7376264;19;20014;-68
2023/08/11 05:42:28;;;;;;;10.55;5.18;;;21.80;1.00;;;;;;7377126;19;20427;-68
2023/08/11 05:44:58;;;;;;;8.85;4.80;;;21.50;1.00;;;;;;7376573;19;20052;-69
2023/08/11 05:47:28;;;;;;;5.95;3.90;;;21.60;1.00;;;;;;7377694;19;20081;-68
2023/08/11 05:49:58;;;;;;;4.82;3.80;;;22.10;1.00;;;;;;7376314;19;20593;-69
2023/08/11 05:52:28;;;;;;;6.28;4.18;;;22.50;1.00;;;;;;7376376;19;20036;-69
2023/08/11 05:55:01;;;;;;;5.30;4.75;;;20.30;1.00;;;;;;7376178;19;20035;-68
2023/08/11 05:57:31;;;;;;;5.78;4.20;;;19.10;1.00;;;;;;7376092;19;20471;-69
2023/08/11 06:00:03;;;;;;;5.35;4.65;;;18.90;1.00;;;;;;7376553;19;20042;-68
2023/08/11 06:02:33;;;;;;;7.95;4.50;;;18.50;1.00;;;;;;7374664;19;20537;-68
2023/08/11 06:05:03;;;;;;;6.00;4.88;;;18.60;1.00;;;;;;7375709;19;20723;-69
2023/08/11 06:07:33;;;;;;;5.20;4.07;;;18.70;1.00;;;;;;7377076;19;20081;-68
2023/08/11 06:10:06;;;;;;;8.73;4.65;;;18.70;1.00;;;;;;7376889;19;20010;-69
2023/08/11 06:12:36;;;;;;;6.95;4.43;;;18.90;1.00;;;;;;7376715;19;20041;-68
2023/08/11 06:15:07;;;;;;;9.10;4.13;;;18.50;1.00;;;;;;7376651;19;20007;-68
2023/08/11 06:17:38;;;;;;;7.93;4.13;;;18.70;1.00;;;;;;7375883;19;20097;-68
2023/08/11 06:20:10;;;;;;;11.05;4.75;;;18.90;1.00;;;;;;7375895;19;20022;-68
2023/08/11 06:22:43;;;;;;;6.10;4.40;;;18.70;1.00;;;;;;7375595;19;20002;-68
2023/08/11 06:25:16;;;;;;;5.88;4.30;;;18.90;1.00;;;;;;7374304;19;20041;-68
2023/08/11 06:27:46;;;;;;;6.30;4.05;;;19.10;1.00;;;;;;7375956;19;20014;-68
2023/08/11 06:30:16;;;;;;;9.65;4.57;;;19.30;1.00;;;;;;7375669;19;20086;-68
2023/08/11 06:32:46;;;;;;;6.50;4.82;;;19.20;1.00;;;;;;7375482;19;20097;-68
2023/08/11 06:35:17;;;;;;;5.78;3.95;;;19.60;1.00;;;;;;7375820;19;20007;-69
2023/08/11 06:37:47;;;;;;;6.13;4.45;;;19.20;1.00;;;;;;7374704;19;20010;-68
2023/08/11 06:40:19;;;;;;;5.35;4.10;;;19.60;1.00;;;;;;7375917;19;20308;-68
2023/08/11 06:42:50;;;;;;;10.05;4.00;;;19.50;1.00;;;;;;7376659;19;20040;-68
2023/08/11 06:45:20;;;;;;;13.23;4.50;;;19.70;1.00;;;;;;7376821;19;20463;-68
2023/08/11 06:47:50;;;;;;;4.90;3.60;;;19.70;1.00;;;;;;7376510;19;20039;-67
2023/08/11 06:50:20;;;;;;;9.57;4.07;;;19.90;1.00;;;;;;7375298;19;20066;-68
2023/08/11 06:52:51;;;;;;;7.05;3.70;;;20.10;1.00;;;;;;7376617;19;20006;-67
2023/08/11 06:55:23;;;;;;;5.05;3.97;;;20.00;1.00;;;;;;7376092;19;20028;-67
2023/08/11 06:57:53;;;;;;;7.10;4.43;;;20.30;1.00;;;;;;7375934;19;20373;-68
2023/08/11 07:00:23;;;;;;;5.57;4.13;;;20.10;1.00;;;;;;7376175;19;20385;-68
2023/08/11 07:02:53;;;;;;;13.95;4.95;;;20.20;1.00;;;;;;7377206;19;20020;-68
2023/08/11 07:05:24;;;;;;;7.38;4.88;;;20.50;1.00;;;;;;7375392;19;20014;-68
2023/08/11 07:07:54;;;;;;;9.30;4.38;;;20.50;1.00;;;;;;7375147;19;20014;-67
2023/08/11 07:10:26;;;;;;;7.50;4.00;;;20.30;1.00;;;;;;7375131;19;20134;-67
2023/08/11 07:12:56;;;;;;;4.28;3.45;;;20.70;1.00;;;;;;7371986;19;20103;-69
2023/08/11 07:15:26;;;;;;;7.18;3.83;;;20.90;1.00;;;;;;7372381;19;20037;-68
2023/08/11 07:17:56;;;;;;;4.32;3.83;;;21.10;1.00;;;;;;7373699;19;20017;-68
2023/08/11 07:20:26;;;;;;;6.75;3.75;;;21.00;1.00;;;;;;7374146;19;20010;-68
2023/08/11 07:22:56;;;;;;;5.50;4.07;;;21.40;1.00;;;;;;7372948;19;20011;-68
2023/08/11 07:25:29;;;;;;;6.90;4.10;;;21.60;1.00;;;;;;7372775;19;20010;-69
2023/08/11 07:27:59;;;;;;;5.25;3.65;;;21.60;1.00;;;;;;7372602;19;20032;-68
2023/08/11 07:30:30;;;;;;;4.45;3.33;;;21.70;1.00;;;;;;7373537;19;20010;-68
2023/08/11 07:33:00;;;;;;;5.22;3.63;;;21.80;1.00;;;;;;7372787;19;20014;-68
2023/08/11 07:35:42;;;;;;;7.47;4.15;;;22.00;1.00;;;;;;7407655;19;20297;-68
2023/08/11 07:38:12;;;;;;;6.18;4.00;;;22.00;1.00;;;;;;7406431;19;20125;-68
2023/08/11 07:40:42;;;;;;;8.35;3.35;;;21.90;1.00;;;;;;7406947;19;20026;-68
2023/08/11 07:43:12;;;;;;;5.25;3.53;;;22.10;1.00;;;;;;7406684;19;20034;-69
2023/08/11 07:45:41;;;;;;;12.43;3.72;;;22.10;1.00;;;;;;7407005;19;20030;-68
2023/08/11 07:48:11;;;;;;;4.25;3.33;;;22.20;1.00;;;;;;7406708;19;20067;-68
2023/08/11 07:50:44;;;;;;;4.70;3.30;;;22.30;1.00;;;;;;7406079;19;20086;-68
2023/08/11 07:53:14;;;;;;;3.58;3.20;;;22.60;1.00;;;;;;7405201;19;20011;-69
2023/08/11 07:55:45;;;;;;;4.88;3.10;;;22.60;1.00;;;;;;7404996;19;20006;-69
2023/08/11 07:58:15;;;;;;;5.78;3.28;;;22.60;1.00;;;;;;7406190;19;21631;-70
2023/08/11 08:00:45;;;;;;;6.43;3.50;;;22.40;1.00;;;;;;7404825;19;20437;-68
2023/08/11 08:03:15;;;;;;;4.90;3.25;;;22.80;1.00;;;;;;7404539;19;20050;-68
2023/08/11 08:05:50;;;;;;;5.32;3.53;;;22.90;1.00;;;;;;7404248;19;20101;-68
2023/08/11 08:08:20;;;;;;;3.30;2.60;;;22.90;1.00;;;;;;7405266;19;20034;-68
2023/08/11 08:10:50;;;;;;;4.88;2.97;;;22.80;1.00;;;;;;7404641;19;20462;-68
2023/08/11 08:13:20;;;;;;;3.90;3.22;;;23.30;1.00;;;;;;7406047;19;20013;-69
2023/08/11 08:15:50;;;;;;;4.53;3.38;;;23.30;1.00;;;;;;7405517;19;20035;-68
2023/08/11 08:18:20;;;;;;;5.75;3.10;;;23.30;1.00;;;;;;7405481;19;20466;-69
2023/08/11 08:20:53;;;;;;;4.20;3.22;;;23.50;1.00;;;;;;7405954;19;20014;-69
2023/08/11 08:23:23;;;;;;;4.68;2.90;;;23.70;1.00;;;;;;7404574;19;20538;-68
2023/08/11 08:25:53;;;;;;;4.82;3.20;;;23.70;1.00;;;;;;7405288;19;20035;-68
2023/08/11 08:28:23;;;;;;;9.30;3.30;;;24.10;1.00;;;;;;7405004;19;20045;-68
2023/08/11 08:30:53;;;;;;;3.92;2.90;;;24.00;1.00;;;;;;7404734;19;20076;-67
2023/08/11 08:33:23;;;;;;;6.68;2.80;;;23.80;1.00;;;;;;7405203;19;20454;-69
2023/08/11 08:35:55;;;;;;;3.60;2.97;;;24.10;1.00;;;;;;7404407;19;20006;-68
2023/08/11 08:38:25;;;;;;;4.05;2.90;;;24.00;1.00;;;;;;7402197;19;20010;-68
2023/08/11 08:40:55;;;;;;;3.65;2.88;;;24.20;1.00;;;;;;7403609;19;20022;-69
2023/08/11 08:43:25;;;;;;;5.95;3.20;;;24.30;1.00;;;;;;7403794;19;20026;-69
2023/08/11 08:45:59;;;;;;;3.45;2.55;;;24.60;1.00;;;;;;7388705;19;20454;-68
2023/08/11 08:48:35;;;;;;;4.90;2.67;;;24.70;1.00;;;;;;7376233;19;20018;-68
2023/08/11 08:51:09;;;;;;;6.78;4.90;;;24.70;1.00;;;;;;7374963;19;20007;-68
2023/08/11 08:53:40;;;;;;;6.03;3.08;;;25.00;1.00;;;;;;7374442;19;20013;-68
2023/08/11 08:56:10;;;;;;;10.82;3.17;;;24.40;1.00;;;;;;7375039;19;20022;-68
2023/08/11 08:58:41;;;;;;;3.35;2.60;;;24.50;1.00;;;;;;7375681;19;20017;-69
2023/08/11 09:01:13;;;;;;;3.92;3.08;;;24.80;1.00;;;;;;7375393;19;20010;-68
2023/08/11 09:03:44;;;;;;;3.65;3.28;;;25.10;1.00;;;;;;7375003;19;20032;-68
2023/08/11 09:06:17;;;;;;;6.72;3.25;;;25.00;1.00;;;;;;7376220;19;20006;-68
2023/08/11 09:08:49;;;;;;;6.38;3.05;;;24.80;1.00;;;;;;7375297;19;20018;-68
2023/08/11 09:11:19;;;;;;;3.58;2.70;;;25.20;1.00;;;;;;7375943;19;20025;-68
2023/08/11 09:13:49;;;;;;;3.38;2.60;;;24.90;1.00;;;;;;7375168;19;20018;-67
2023/08/11 09:16:19;;;;;;;3.65;2.80;;;25.00;1.00;;;;;;7374533;19;20010;-70
2023/08/11 09:18:49;;;;;;;4.47;2.80;;;24.90;1.00;;;;;;7376822;19;20002;-68
2023/08/11 09:21:24;;;;;;;4.85;3.20;;;24.90;1.00;;;;;;7376506;19;20466;-68
2023/08/11 09:23:55;;;;;;;5.80;2.90;;;25.00;1.00;;;;;;7377643;19;20006;-68
2023/08/11 09:26:26;;;;;;;3.78;2.40;;;25.10;1.00;;;;;;7377074;19;20015;-70
2023/08/11 09:28:57;;;;;;;5.57;2.90;;;25.20;1.00;;;;;;7388408;19;20041;-69
2023/08/11 09:31:27;;;;;;;3.55;2.75;;;25.60;1.00;;;;;;7381645;19;20006;-69
2023/08/11 09:33:57;;;;;;;4.72;2.60;;;25.80;1.00;;;;;;7378815;19;20068;-69
2023/08/11 09:36:30;;;;;;;3.50;2.55;;;25.60;1.00;;;;;;7376191;19;20023;-68
2023/08/11 09:39:08;;;;;;;4.97;3.15;;;25.60;1.00;;;;;;7375555;19;20064;-69
2023/08/11 09:41:47;;;;;;;3.05;2.67;;;26.00;1.00;;;;;;7374938;19;20082;-69
2023/08/11 09:44:18;;;;;;;3.80;2.80;;;25.50;1.00;;;;;;7373551;19;20019;-68
2023/08/11 09:46:49;;;;;;;5.80;2.92;;;25.50;1.00;;;;;;7374459;19;20090;-70
2023/08/11 09:49:20;;;;;;;4.50;2.67;;;25.90;1.00;;;;;;7375476;19;20014;-68
2023/08/11 09:51:57;;;;;;;3.40;2.85;;;26.40;1.00;;;;;;7374165;19;20007;-69
2023/08/11 09:54:27;;;;;;;3.38;2.65;;;25.80;1.00;;;;;;7375401;19;20018;-70
2023/08/11 09:56:58;;;;;;;4.30;3.03;;;25.80;1.00;;;;;;7373770;19;20369;-68
2023/08/11 09:59:29;;;;;;;2.97;2.55;;;26.00;1.00;;;;;;7374913;19;20010;-70
2023/08/11 10:02:02;;;;;;;4.22;2.50;;;26.10;1.00;;;;;;7375121;19;20006;-68
2023/08/11 10:04:37;;;;;;;3.30;2.90;;;26.30;1.00;;;;;;7373497;19;20409;-71
2023/08/11 10:07:13;;;;;;;3.38;3.05;;;26.30;1.00;;;;;;7372977;19;20014;-70
2023/08/11 10:09:46;;;;;;;5.53;2.88;;;26.40;1.00;;;;;;7373264;19;20051;-70
2023/08/11 10:12:17;;;;;;;4.97;2.90;;;26.30;1.00;;;;;;7374196;19;20006;-71
2023/08/11 10:14:47;;;;;;;3.85;2.60;;;26.50;1.00;;;;;;7374385;19;20010;-70
2023/08/11 10:17:17;;;;;;;6.90;2.75;;;26.40;1.00;;;;;;7375999;19;20039;-69
2023/08/11 10:19:47;;;;;;;5.93;2.95;;;26.70;1.00;;;;;;7378032;19;20011;-69
2023/08/11 10:22:21;;;;;;;5.40;3.00;;;26.90;1.00;;;;;;7376343;19;20027;-70
2023/08/11 10:24:51;;;;;;;4.07;3.00;;;26.70;1.00;;;;;;7373481;19;20455;-70
2023/08/11 10:27:21;;;;;;;5.25;3.15;;;26.50;1.00;;;;;;7375842;19;20085;-70
2023/08/11 10:29:53;;;;;;;2.80;2.50;;;26.80;1.00;;;;;;7377167;19;20086;-70
2023/08/11 10:32:25;;;;;;;5.97;2.67;;;26.90;1.00;;;;;;7375439;19;20031;-73
2023/08/11 10:34:55;;;;;;;4.50;2.83;;;26.60;1.00;;;;;;7373505;19;20078;-70
2023/08/11 10:37:31;;;;;;;3.25;2.80;;;26.70;1.00;;;;;;7374087;19;20014;-72
2023/08/11 10:40:11;;;;;;;2.97;2.67;;;26.70;1.00;;;;;;7374712;19;20017;-70
2023/08/11 10:42:42;;;;;;;4.35;3.05;;;26.70;1.00;;;;;;7377123;19;20010;-70
2023/08/11 10:45:14;;;;;;;3.28;2.53;;;26.80;1.00;;;;;;7375134;19;20496;-69
2023/08/11 10:47:54;;;;;;;3.45;2.97;;;26.80;1.00;;;;;;7375381;19;20052;-69
2023/08/11 10:50:24;;;;;;;4.78;3.08;;;26.80;1.00;;;;;;7374821;19;20038;-69
2023/08/11 10:53:21;;;;;;;4.50;2.90;;;26.90;1.00;;;;;;7371659;19;20565;-69
2023/08/11 10:56:01;;;;;;;4.70;2.90;;;26.80;1.00;;;;;;7375256;19;20360;-69
2023/08/11 10:58:32;;;;;;;3.40;2.95;;;27.10;1.00;;;;;;7374922;19;20021;-70
2023/08/11 11:01:03;;;;;;;3.63;3.17;;;27.00;1.00;;;;;;7372437;19;20022;-70
2023/08/11 11:03:35;;;;;;;5.10;3.58;;;27.20;1.00;;;;;;7373932;19;20651;-69
2023/08/11 11:06:06;;;;;;;5.97;3.17;;;27.20;1.00;;;;;;7372445;19;20058;-68
2023/08/11 11:08:39;;;;;;;4.53;2.83;;;27.40;1.00;;;;;;7374778;19;20529;-69
2023/08/11 11:11:09;;;;;;;4.03;2.67;;;26.80;1.00;;;;;;7373895;19;20052;-69
2023/08/11 11:13:39;;;;;;;4.40;3.08;;;27.10;1.00;;;;;;7374525;19;20015;-68
2023/08/11 11:16:09;;;;;;;6.03;2.40;;;27.10;1.00;;;;;;7374314;19;20527;-69
2023/08/11 11:18:42;;;;;;;3.55;2.67;;;27.20;1.00;;;;;;7374612;19;20006;-70
2023/08/11 11:21:14;;;;;;;3.70;2.67;;;27.80;1.00;;;;;;7375312;19;20023;-69
2023/08/11 11:23:49;;;;;;;3.72;2.50;;;27.50;1.00;;;;;;7376037;19;20006;-70
2023/08/11 11:26:24;;;;;;;2.95;2.65;;;27.70;1.00;;;;;;7374305;19;20820;-69
2023/08/11 11:28:56;;;;;;;5.80;2.58;;;27.70;1.00;;;;;;7373786;19;20007;-70
2023/08/11 11:31:29;;;;;;;3.13;2.47;;;27.60;1.00;;;;;;7374152;19;20416;-70
2023/08/11 11:33:59;;;;;;;4.30;2.90;;;27.30;1.00;;;;;;7372862;19;20526;-69
2023/08/11 11:36:31;;;;;;;3.70;2.90;;;27.70;1.00;;;;;;7373353;19;20103;-72
2023/08/11 11:39:06;;;;;;;5.45;3.17;;;27.50;1.00;;;;;;7375503;19;20449;-70
2023/08/11 11:41:36;;;;;;;4.68;2.90;;;27.60;1.00;;;;;;7372158;19;20048;-71
2023/08/11 11:44:06;;;;;;;4.18;2.55;;;27.60;1.00;;;;;;7372719;19;20013;-70
2023/08/11 11:46:36;;;;;;;3.13;2.50;;;28.00;1.00;;;;;;7373532;19;20017;-70
2023/08/11 11:49:07;;;;;;;4.13;2.83;;;28.20;1.00;;;;;;7372379;19;20015;-70
2023/08/11 11:51:57;;;;;;;4.40;2.75;;;27.80;1.00;;;;;;7373001;19;20061;-70
2023/08/11 11:54:33;;;;;;;3.17;2.40;;;27.70;1.00;;;;;;7372579;19;20010;-70
2023/08/11 11:57:06;;;;;;;3.67;2.40;;;27.70;1.00;;;;;;7371263;19;20014;-70
2023/08/11 11:59:38;;;;;;;4.00;3.00;;;27.90;1.00;;;;;;7371749;19;20022;-69
2023/08/11 12:02:09;;;;;;;3.35;2.55;;;28.10;1.00;;;;;;7372107;19;20101;-70
2023/08/11 12:04:40;;;;;;;4.72;3.00;;;28.10;1.00;;;;;;7370692;19;20132;-71
2023/08/11 12:07:10;;;;;;;3.70;2.80;;;27.90;1.00;;;;;;7370756;19;20020;-68
2023/08/11 12:09:55;;;;;;;3.58;2.70;;;28.10;1.00;;;;;;7371058;19;20365;-69
2023/08/11 12:12:26;;;;;;;3.45;2.63;;;27.80;1.00;;;;;;7371634;19;20014;-68
2023/08/11 12:15:03;;;;;;;4.80;2.70;;;27.80;1.00;;;;;;7372545;19;20039;-69
2023/08/11 12:17:34;;;;;;;7.50;2.65;;;28.10;1.00;;;;;;7371057;19;20014;-70
2023/08/11 12:20:09;;;;;;;3.50;2.65;;;28.10;1.00;;;;;;7371742;19;20041;-69
2023/08/11 12:22:40;;;;;;;3.67;2.67;;;28.00;1.00;;;;;;7377655;19;20013;-70
2023/08/11 12:25:13;;;;;;;3.92;2.30;;;28.10;1.00;;;;;;7378983;19;20011;-69
2023/08/11 12:27:43;;;;;;;4.20;2.63;;;28.10;1.00;;;;;;7378960;19;20011;-71
2023/08/11 12:30:15;;;;;;;3.35;2.50;;;28.20;1.00;;;;;;7378568;19;20536;-70
2023/08/11 12:32:45;;;;;;;3.53;2.63;;;28.40;1.00;;;;;;7379102;19;20502;-70
2023/08/11 12:35:15;;;;;;;2.63;2.42;;;28.40;1.00;;;;;;7377928;19;20010;-70
2023/08/11 12:37:46;;;;;;;4.85;2.53;;;28.10;1.00;;;;;;7377845;19;20373;-69
2023/08/11 12:40:21;;;;;;;3.00;2.63;;;28.40;1.00;;;;;;7379148;19;20003;-69
2023/08/11 12:42:51;;;;;;;3.33;2.63;;;28.80;1.00;;;;;;7378603;19;20010;-69
2023/08/11 12:45:21;;;;;;;3.00;2.58;;;28.60;1.00;;;;;;7378353;19;20064;-69
2023/08/11 12:47:51;;;;;;;3.25;2.47;;;28.50;1.00;;;;;;7377999;19;20010;-70
2023/08/11 12:50:23;;;;;;;2.60;2.30;;;28.30;1.00;;;;;;7378503;19;20391;-70
2023/08/11 12:52:53;;;;;;;3.35;2.40;;;28.40;1.00;;;;;;7379456;19;20026;-71
2023/08/11 12:55:26;;;;;;;4.13;2.30;;;28.80;1.00;;;;;;7374216;19;20097;-70
2023/08/11 12:57:56;;;;;;;4.57;2.65;;;28.90;1.00;;;;;;7375217;19;20047;-69
2023/08/11 13:00:27;;;;;;;3.88;2.28;;;28.80;1.00;;;;;;7377418;19;20073;-69
2023/08/11 13:02:57;;;;;;;3.88;2.60;;;28.60;1.00;;;;;;7373522;19;20027;-69
2023/08/11 13:05:27;;;;;;;2.78;2.50;;;28.80;1.00;;;;;;7373973;19;20034;-69
2023/08/11 13:07:57;;;;;;;3.53;2.25;;;28.80;1.00;;;;;;7375949;19;20089;-68
2023/08/11 13:10:30;;;;;;;3.60;2.63;;;28.80;1.00;;;;;;7373163;19;20395;-70
2023/08/11 13:13:01;;;;;;;2.83;2.03;;;28.70;1.00;;;;;;7375197;19;20047;-69
2023/08/11 13:15:31;;;;;;;3.83;2.53;;;28.60;1.00;;;;;;7376571;19;20010;-68
2023/08/11 13:18:01;;;;;;;4.25;2.40;;;28.60;1.00;;;;;;7372989;19;20035;-70
2023/08/11 13:20:31;;;;;;;5.78;2.40;;;28.70;1.00;;;;;;7372967;19;20014;-69